createdAt,value
2022-10-19T00:03:09.956Z,8.35
2022-10-19T00:06:34.721Z,7.63
2022-10-19T00:09:58.977Z,8.93
2022-10-19T00:13:21.866Z,6.30
2022-10-19T00:16:46.129Z,8.85
2022-10-19T00:20:09.830Z,7.65
2022-10-19T00:23:33.072Z,9.98
2022-10-19T00:26:57.328Z,8.75
2022-10-19T00:30:21.479Z,10.45
2022-10-19T00:33:46.697Z,9.95
2022-10-19T00:37:09.625Z,9.75
2022-10-19T00:40:38.494Z,7.97
2022-10-19T00:44:05.020Z,10.00
2022-10-19T00:47:28.614Z,11.20
2022-10-19T00:50:53.269Z,8.82
2022-10-19T00:54:18.445Z,13.23
2022-10-19T00:57:42.001Z,11.00
2022-10-19T01:01:07.166Z,8.95
2022-10-19T01:04:31.601Z,9.63
2022-10-19T01:07:55.612Z,5.63
2022-10-19T01:11:32.276Z,7.47
2022-10-19T01:15:07.129Z,12.70
2022-10-19T01:18:40.273Z,7.20
2022-10-19T01:22:13.972Z,11.65
2022-10-19T01:25:48.425Z,12.15
2022-10-19T01:29:19.364Z,8.48
2022-10-19T01:33:00.502Z,11.07
2022-10-19T01:36:31.448Z,6.47
2022-10-19T01:40:00.040Z,5.88
2022-10-19T01:43:34.006Z,8.10
2022-10-19T01:46:59.817Z,4.70
2022-10-19T01:50:29.672Z,5.70
2022-10-19T01:53:56.368Z,9.18
2022-10-19T01:57:24.765Z,7.05
2022-10-19T02:00:50.030Z,4.82
2022-10-19T02:04:15.329Z,7.93
2022-10-19T02:07:42.381Z,4.22
2022-10-19T02:11:05.980Z,9.05
2022-10-19T02:14:31.020Z,6.22
2022-10-19T02:17:57.297Z,9.48
2022-10-19T02:21:20.524Z,8.00
2022-10-19T02:24:44.797Z,5.43
2022-10-19T02:28:07.803Z,2.75
2022-10-19T02:31:31.254Z,10.20
2022-10-19T02:34:54.228Z,6.38
2022-10-19T02:38:20.279Z,9.15
2022-10-19T02:41:50.454Z,5.55
2022-10-19T02:45:18.376Z,9.07
2022-10-19T02:48:42.962Z,6.80
2022-10-19T02:52:07.725Z,4.95
2022-10-19T02:55:31.635Z,4.03
2022-10-19T02:58:56.004Z,6.22
2022-10-19T03:02:21.384Z,8.43
2022-10-19T03:05:44.377Z,5.35
2022-10-19T03:09:07.405Z,6.57
2022-10-19T03:12:30.279Z,5.03
2022-10-19T03:15:54.549Z,7.32
2022-10-19T03:19:17.441Z,5.72
2022-10-19T03:22:40.381Z,4.85
2022-10-19T03:26:04.340Z,4.45
2022-10-19T03:29:28.929Z,5.97
2022-10-19T03:32:53.173Z,7.43
2022-10-19T03:36:18.513Z,5.10
2022-10-19T03:39:41.425Z,5.03
2022-10-19T03:43:04.433Z,5.32
2022-10-19T03:46:27.816Z,3.80
2022-10-19T03:49:52.078Z,6.18
2022-10-19T03:53:15.886Z,3.90
2022-10-19T03:56:39.237Z,8.43
2022-10-19T04:00:02.127Z,7.70
2022-10-19T04:07:00.093Z,7.00
2022-10-19T04:10:22.939Z,3.28
2022-10-19T04:13:45.809Z,3.78
2022-10-19T04:17:08.746Z,8.48
2022-10-19T04:20:31.624Z,6.70
2022-10-19T04:23:59.552Z,10.98
2022-10-19T04:27:22.521Z,8.93
2022-10-19T04:30:45.436Z,4.88
2022-10-19T04:34:09.217Z,3.72
2022-10-19T04:37:32.474Z,6.13
2022-10-19T04:40:56.950Z,4.68
2022-10-19T04:44:19.871Z,5.95
2022-10-19T04:47:42.825Z,10.57
2022-10-19T04:51:06.381Z,6.07
2022-10-19T04:54:29.338Z,26.77
2022-10-19T04:57:53.582Z,14.10
2022-10-19T05:01:19.192Z,16.55
2022-10-19T05:04:45.146Z,28.88
2022-10-19T05:08:08.777Z,14.98
2022-10-19T05:11:31.670Z,20.48
2022-10-19T05:14:55.903Z,14.93
2022-10-19T05:18:18.780Z,15.23
2022-10-19T05:21:41.702Z,16.23
2022-10-19T05:25:05.045Z,18.42
2022-10-19T05:28:28.015Z,15.23
2022-10-19T05:31:52.326Z,9.23
2022-10-19T05:35:17.513Z,8.43
2022-10-19T05:38:43.507Z,10.38
2022-10-19T05:42:06.369Z,14.52
2022-10-19T05:45:29.294Z,8.38
2022-10-19T05:48:53.556Z,9.25
2022-10-19T05:52:17.702Z,8.85
2022-10-19T05:55:40.698Z,9.43
2022-10-19T05:59:05.994Z,7.22
2022-10-19T06:02:28.877Z,12.38
2022-10-19T06:05:53.883Z,11.68
2022-10-19T06:09:16.724Z,10.05
2022-10-19T06:12:39.618Z,10.07
2022-10-19T06:16:02.620Z,8.90
2022-10-19T06:19:25.592Z,14.57
2022-10-19T06:22:50.150Z,24.30
2022-10-19T06:26:15.314Z,18.40
2022-10-19T06:29:38.604Z,11.88
2022-10-19T06:33:01.562Z,8.65
2022-10-19T06:36:26.368Z,14.30
2022-10-19T06:39:50.673Z,12.27
2022-10-19T06:43:13.638Z,13.82
2022-10-19T06:46:36.497Z,13.52
2022-10-19T06:49:59.450Z,9.77
2022-10-19T06:53:22.355Z,9.55
2022-10-19T06:56:46.652Z,8.68
2022-10-19T07:00:10.765Z,11.45
2022-10-19T07:03:33.898Z,10.90
2022-10-19T07:06:56.858Z,8.50
2022-10-19T07:10:19.864Z,12.63
2022-10-19T07:13:44.354Z,6.82
2022-10-19T07:17:07.483Z,8.57
2022-10-19T07:20:30.397Z,11.30
2022-10-19T07:23:53.612Z,29.42
2022-10-19T07:27:16.558Z,17.88
2022-10-19T07:30:41.008Z,10.90
2022-10-19T07:34:05.677Z,22.17
2022-10-19T07:37:28.559Z,11.95
2022-10-19T07:40:51.460Z,19.58
2022-10-19T07:44:15.979Z,13.52
2022-10-19T07:47:40.257Z,10.60
2022-10-19T07:51:05.113Z,7.10
2022-10-19T07:54:28.205Z,10.38
2022-10-19T07:57:51.276Z,12.15
2022-10-19T08:01:15.741Z,10.50
2022-10-19T08:04:59.537Z,10.88
2022-10-19T08:08:22.994Z,11.10
2022-10-19T08:11:45.922Z,12.38
2022-10-19T08:15:09.470Z,8.02
2022-10-19T08:21:57.197Z,17.33
2022-10-19T08:25:20.105Z,7.75
2022-10-19T08:28:43.224Z,6.35
2022-10-19T08:32:06.506Z,8.82
2022-10-19T08:35:30.612Z,12.18
2022-10-19T08:38:54.886Z,22.15
2022-10-19T08:42:21.258Z,9.43
2022-10-19T08:45:48.921Z,10.65
2022-10-19T08:49:16.808Z,11.65
2022-10-19T08:52:40.511Z,10.32
2022-10-19T08:56:38.907Z,11.00
2022-10-19T09:00:07.623Z,9.70
2022-10-19T09:03:56.218Z,11.35
2022-10-19T09:07:27.160Z,13.40
2022-10-19T09:10:53.422Z,15.82
2022-10-19T09:14:22.568Z,7.63
2022-10-19T09:17:45.490Z,6.75
2022-10-19T09:21:13.951Z,13.40
2022-10-19T09:24:44.453Z,8.55
2022-10-19T09:28:20.478Z,10.80
2022-10-19T09:31:45.409Z,15.13
2022-10-19T09:35:22.790Z,11.20
2022-10-19T09:38:45.734Z,11.93
2022-10-19T09:42:13.579Z,8.80
2022-10-19T09:45:43.080Z,9.60
2022-10-19T09:49:07.395Z,14.80
2022-10-19T09:52:35.690Z,7.85
2022-10-19T09:56:01.591Z,9.70
2022-10-19T09:59:29.542Z,11.20
2022-10-19T10:02:53.521Z,15.45
2022-10-19T10:06:19.021Z,10.05
2022-10-19T10:09:44.954Z,9.45
2022-10-19T10:13:07.912Z,11.88
2022-10-19T10:20:27.577Z,7.72
2022-10-19T10:24:05.238Z,10.10
2022-10-19T10:27:33.751Z,13.55
2022-10-19T10:31:01.682Z,7.63
2022-10-19T10:34:52.808Z,30.35
2022-10-19T10:38:20.887Z,17.48
2022-10-19T10:41:48.077Z,32.70
2022-10-19T10:45:19.630Z,35.30
2022-10-19T10:48:45.276Z,32.22
2022-10-19T10:52:11.249Z,29.48
2022-10-19T10:55:35.171Z,29.75
2022-10-19T10:59:02.961Z,27.25
2022-10-19T11:02:32.782Z,25.00
2022-10-19T11:05:59.250Z,17.85
2022-10-19T11:09:30.344Z,28.60
2022-10-19T11:13:02.647Z,25.50
2022-10-19T11:16:31.020Z,21.55
2022-10-19T11:19:54.067Z,19.55
2022-10-19T11:23:20.527Z,13.77
2022-10-19T11:26:54.342Z,17.25
2022-10-19T11:30:19.995Z,15.63
2022-10-19T11:33:53.558Z,12.43
2022-10-19T11:37:26.070Z,12.85
2022-10-19T11:44:51.444Z,15.75
2022-10-19T11:48:43.881Z,15.02
2022-10-19T11:52:13.893Z,15.05
2022-10-19T11:55:44.824Z,17.05
2022-10-19T11:59:16.183Z,23.15
2022-10-19T12:02:59.402Z,30.00
2022-10-19T12:06:35.210Z,15.30
2022-10-19T12:10:08.750Z,24.83
2022-10-19T12:13:41.627Z,21.35
2022-10-19T12:17:09.689Z,6.80
2022-10-19T12:20:37.689Z,5.35
2022-10-19T12:24:03.153Z,5.78
2022-10-19T12:27:33.032Z,9.65
2022-10-19T12:30:57.592Z,9.32
2022-10-19T12:34:32.094Z,9.65
2022-10-19T12:37:59.373Z,9.88
2022-10-19T12:41:28.512Z,10.65
2022-10-19T12:45:14.708Z,11.10
2022-10-19T12:48:39.194Z,7.60
2022-10-19T12:52:03.157Z,4.85
2022-10-19T12:55:34.430Z,6.28
2022-10-19T12:59:01.354Z,7.10
2022-10-19T13:06:00.956Z,3.28
2022-10-19T13:09:28.961Z,4.05
2022-10-19T13:12:52.431Z,4.20
2022-10-19T13:17:03.176Z,4.82
2022-10-19T13:20:54.844Z,7.75
2022-10-19T13:24:26.757Z,4.22
2022-10-19T13:27:50.401Z,5.47
2022-10-19T13:31:26.921Z,4.63
2022-10-19T13:34:50.097Z,3.88
2022-10-19T13:38:26.119Z,6.95
2022-10-19T13:41:53.971Z,2.28
2022-10-19T13:45:23.553Z,8.90
2022-10-19T13:49:32.551Z,7.63
2022-10-19T13:53:20.773Z,7.75
2022-10-19T13:56:59.714Z,9.00
2022-10-19T14:00:26.709Z,5.07
2022-10-19T14:04:10.824Z,3.15
2022-10-19T14:07:43.372Z,3.67
2022-10-19T14:11:13.345Z,4.90
2022-10-19T14:14:45.238Z,5.85
2022-10-19T14:18:26.910Z,5.75
2022-10-19T14:21:49.818Z,6.07
2022-10-19T14:25:20.450Z,2.25
2022-10-19T14:28:44.248Z,6.80
2022-10-19T14:32:10.239Z,7.25
2022-10-19T14:35:35.648Z,9.30
2022-10-19T14:38:58.601Z,2.58
2022-10-19T14:42:22.095Z,7.72
2022-10-19T14:45:45.005Z,6.63
2022-10-19T14:49:12.521Z,7.35
2022-10-19T14:52:39.600Z,6.50
2022-10-19T14:56:07.239Z,6.60
2022-10-19T14:59:34.760Z,7.65
2022-10-19T15:03:01.016Z,6.10
2022-10-19T15:06:29.334Z,6.68
2022-10-19T15:09:55.966Z,4.80
2022-10-19T15:13:25.202Z,7.00
2022-10-19T15:16:53.378Z,4.13
2022-10-19T15:20:25.501Z,7.45
2022-10-19T15:23:51.103Z,2.35
2022-10-19T15:27:21.600Z,1.50
2022-10-19T15:30:44.621Z,8.73
2022-10-19T15:34:17.458Z,8.93
2022-10-19T15:37:44.581Z,5.20
2022-10-19T15:41:16.360Z,5.70
2022-10-19T15:44:43.490Z,5.00
2022-10-19T15:48:24.563Z,9.13
2022-10-19T15:51:48.823Z,5.55
2022-10-19T15:55:14.718Z,4.93
2022-10-19T15:58:38.982Z,6.57
2022-10-19T16:02:01.971Z,4.75
2022-10-19T16:05:25.240Z,4.20
2022-10-19T16:08:48.424Z,2.85
2022-10-19T16:12:11.934Z,6.38
2022-10-19T16:15:36.171Z,5.90
2022-10-19T16:19:00.377Z,6.72
2022-10-19T16:22:23.366Z,3.17
2022-10-19T16:25:46.302Z,5.57
2022-10-19T16:29:09.317Z,4.85
2022-10-19T16:32:33.562Z,4.53
2022-10-19T16:35:56.512Z,2.97
2022-10-19T16:39:19.515Z,3.45
2022-10-19T16:42:42.439Z,4.55
2022-10-19T16:46:05.984Z,18.73
2022-10-19T16:49:30.391Z,7.40
2022-10-19T16:53:05.025Z,9.07
2022-10-19T16:56:31.843Z,7.32
2022-10-19T16:59:55.367Z,5.38
2022-10-19T17:03:18.260Z,3.22
2022-10-19T17:06:42.530Z,9.20
2022-10-19T17:10:06.358Z,3.30
2022-10-19T17:13:29.297Z,4.90
2022-10-19T17:16:52.171Z,3.15
2022-10-19T17:20:15.691Z,3.53
2022-10-19T17:23:40.213Z,3.17
2022-10-19T17:27:03.944Z,7.07
2022-10-19T17:30:27.123Z,3.35
2022-10-19T17:33:50.590Z,4.75
2022-10-19T17:37:13.482Z,4.75
2022-10-19T17:40:38.039Z,3.17
2022-10-19T17:44:00.912Z,4.07
2022-10-19T17:47:23.841Z,5.07
2022-10-19T17:50:56.357Z,5.05
2022-10-19T17:54:19.281Z,3.95
2022-10-19T17:57:43.497Z,4.18
2022-10-19T18:01:07.502Z,5.35
2022-10-19T18:04:30.510Z,4.55
2022-10-19T18:07:53.713Z,5.32
2022-10-19T18:11:19.370Z,4.38
2022-10-19T18:14:44.644Z,5.82
2022-10-19T18:18:07.561Z,2.90
2022-10-19T18:21:32.637Z,2.72
2022-10-19T18:24:55.541Z,3.00
2022-10-19T18:28:18.550Z,3.80
2022-10-19T18:31:43.189Z,5.78
2022-10-19T18:35:06.921Z,5.13
2022-10-19T18:38:29.844Z,4.97
2022-10-19T18:41:54.439Z,8.93
2022-10-19T18:45:18.008Z,3.10
2022-10-19T18:48:42.252Z,5.45
2022-10-19T18:52:06.273Z,9.52
2022-10-19T18:55:29.151Z,4.68
2022-10-19T18:58:52.324Z,8.35
2022-10-19T19:02:22.418Z,10.65
2022-10-19T19:05:52.958Z,10.50
2022-10-19T19:09:17.494Z,7.65
2022-10-19T19:12:40.452Z,7.80
2022-10-19T19:16:03.556Z,8.38
2022-10-19T19:19:27.511Z,8.27
2022-10-19T19:22:51.716Z,16.55
2022-10-19T19:26:15.874Z,6.88
2022-10-19T19:29:39.000Z,5.25
2022-10-19T19:33:02.031Z,8.43
2022-10-19T19:36:24.906Z,8.07
2022-10-19T19:39:50.165Z,6.45
2022-10-19T19:43:15.593Z,11.38
2022-10-19T19:46:40.401Z,8.63
2022-10-19T19:50:03.505Z,7.68
2022-10-19T19:53:26.418Z,6.70
2022-10-19T19:56:52.772Z,11.32
2022-10-19T20:00:16.373Z,6.22
2022-10-19T20:03:39.842Z,8.65
2022-10-19T20:07:03.010Z,5.88
2022-10-19T20:10:26.138Z,13.38
2022-10-19T20:13:50.915Z,9.45
2022-10-19T20:17:13.841Z,8.63
2022-10-19T20:20:36.810Z,6.95
2022-10-19T20:23:59.878Z,8.00
2022-10-19T20:27:23.097Z,8.90
2022-10-19T20:30:47.410Z,6.03
2022-10-19T20:34:12.273Z,7.15
2022-10-19T20:37:35.665Z,9.18
2022-10-19T20:40:58.686Z,8.00
2022-10-19T20:44:21.879Z,5.47
2022-10-19T20:47:46.161Z,3.72
2022-10-19T20:51:11.001Z,8.55
2022-10-19T20:54:34.200Z,6.85
2022-10-19T20:57:57.091Z,10.18
2022-10-19T21:01:20.190Z,5.40
2022-10-19T21:04:44.458Z,7.68
2022-10-19T21:08:09.375Z,8.18
2022-10-19T21:11:34.509Z,8.52
2022-10-19T21:14:57.413Z,4.45
2022-10-19T21:18:20.369Z,13.57
2022-10-19T21:21:46.447Z,10.32
2022-10-19T21:25:10.797Z,13.68
2022-10-19T21:28:33.676Z,7.90
2022-10-19T21:31:56.724Z,8.13
2022-10-19T21:35:19.610Z,5.57
2022-10-19T21:38:44.142Z,11.38
2022-10-19T21:42:07.256Z,7.40
2022-10-19T21:45:30.920Z,8.55
2022-10-19T21:48:55.731Z,5.22
2022-10-19T21:52:18.618Z,6.18
2022-10-19T21:55:42.849Z,6.38
2022-10-19T21:59:05.943Z,4.25
2022-10-19T22:02:28.885Z,11.75
2022-10-19T22:05:52.549Z,7.45
2022-10-19T22:09:17.606Z,6.78
2022-10-19T22:12:41.863Z,5.22
2022-10-19T22:16:06.170Z,6.22
2022-10-19T22:19:29.162Z,4.40
2022-10-19T22:22:54.897Z,6.60
2022-10-19T22:26:19.562Z,6.43
2022-10-19T22:29:44.016Z,3.97
2022-10-19T22:33:07.658Z,5.95
2022-10-19T22:36:30.889Z,4.90
2022-10-19T22:39:53.749Z,8.73
2022-10-19T22:43:16.671Z,6.72
2022-10-19T22:46:40.877Z,4.78
2022-10-19T22:50:04.603Z,5.30
2022-10-19T22:53:27.565Z,4.72
2022-10-19T22:56:50.561Z,5.13
2022-10-19T23:00:14.328Z,6.65
2022-10-19T23:03:40.291Z,5.20
2022-10-19T23:07:03.216Z,6.07
2022-10-19T23:10:26.181Z,6.53
2022-10-19T23:13:49.054Z,5.20
2022-10-19T23:17:11.913Z,5.57
2022-10-19T23:20:36.190Z,6.63
2022-10-19T23:23:59.288Z,5.50
2022-10-19T23:27:22.157Z,10.65
2022-10-19T23:30:45.054Z,4.65
2022-10-19T23:34:07.925Z,9.32
2022-10-19T23:37:32.233Z,7.55
2022-10-19T23:40:55.127Z,4.65
2022-10-19T23:44:17.990Z,7.35
2022-10-19T23:47:40.858Z,5.68
2022-10-19T23:51:06.415Z,3.83
2022-10-19T23:54:30.685Z,4.35
2022-10-19T23:57:53.612Z,5.38
